Manhattan, Montana
Current Conditions -  °F | °C
As of 10:56 AM on Tuesday 21 Oct 2014 (Local Time) from KBZN Reporting Station
Clear Clear  
Wind Chill: 61°   Ceiling: Unl
Heat Index: 61°   Visibility: 10mi
Dew Point: 42°   Wind: 9mph
Humidity: 50%   Direction: 160°SSE
Pressure: 29.71"   Gusts: NA
Location:  45.86°N, 111.33°W
Report Text: KBZN 211656Z 16008KT 10SM CLR 16/06 A2971 RMK AO2 SLP039 T01610056
Loading
Personal Weather Stations






























Interactive Weather Map
Tropical Storm Tracking
New forecast layout! Learn more

10-Day Weather Forecast

Advertisements
Track Severe Weather on mobile